createdAt,value
2022-08-26T00:01:08.987Z,95241.81
2022-08-26T00:03:54.987Z,95244.19
2022-08-26T00:06:42.638Z,95250.53
2022-08-26T00:09:33.137Z,95245.03
2022-08-26T00:12:27.854Z,95250.19
2022-08-26T00:15:23.285Z,95249.81
2022-08-26T00:18:22.049Z,95230.91
2022-08-26T00:21:09.968Z,95246.66
2022-08-26T00:23:56.121Z,95244.28
2022-08-26T00:26:42.233Z,95246.69
2022-08-26T00:29:29.137Z,95244.72
2022-08-26T00:32:17.623Z,95242.75
2022-08-26T00:35:04.791Z,95244.31
2022-08-26T00:37:54.714Z,95239.22
2022-08-26T00:40:52.221Z,95231.72
2022-08-26T00:43:47.789Z,95234.47
2022-08-26T00:46:39.930Z,95239.19
2022-08-26T00:49:41.507Z,95245.91
2022-08-26T00:52:28.770Z,95239.59
2022-08-26T00:55:37.757Z,95240.41
2022-08-26T00:58:25.686Z,95245.16
2022-08-26T01:01:12.065Z,95243.16
2022-08-26T01:03:59.991Z,95243.56
2022-08-26T01:06:46.868Z,95242.78
2022-08-26T01:09:33.905Z,95233.31
2022-08-26T01:12:22.107Z,95243.16
2022-08-26T01:15:11.239Z,95235.28
2022-08-26T01:17:59.015Z,95237.25
2022-08-26T01:20:51.526Z,95243.53
2022-08-26T01:23:45.208Z,95234.91
2022-08-26T01:26:34.865Z,95243.53
2022-08-26T01:29:22.161Z,95239.59
2022-08-26T01:32:11.012Z,95242.75
2022-08-26T01:34:57.309Z,95243.53
2022-08-26T01:37:46.529Z,95240.38
2022-08-26T01:40:35.414Z,95240.78
2022-08-26T01:43:24.314Z,95245.91
2022-08-26T01:46:11.095Z,95243.97
2022-08-26T01:48:59.400Z,95245.13
2022-08-26T01:51:47.219Z,95243.16
2022-08-26T01:54:34.258Z,95241.97
2022-08-26T01:57:21.356Z,95232.53
2022-08-26T02:00:11.029Z,95239.63
2022-08-26T02:03:18.171Z,95228.22
2022-08-26T02:06:09.373Z,95232.56
2022-08-26T02:08:58.437Z,95243.59
2022-08-26T02:11:45.315Z,95243.19
2022-08-26T02:14:36.207Z,95238.09
2022-08-26T02:17:35.699Z,95238.09
2022-08-26T02:20:22.819Z,95227.84
2022-08-26T02:23:09.508Z,95245.97
2022-08-26T02:26:09.939Z,95236.13
2022-08-26T02:29:02.666Z,95234.94
2022-08-26T02:31:48.914Z,95230.22
2022-08-26T02:34:35.401Z,95224.69
2022-08-26T02:37:23.126Z,95228.66
2022-08-26T02:40:11.945Z,95230.19
2022-08-26T02:42:58.180Z,95225.06
2022-08-26T02:45:44.496Z,95223.88
2022-08-26T02:48:30.879Z,95213.66
2022-08-26T02:51:17.094Z,95226.28
2022-08-26T02:54:03.631Z,95213.66
2022-08-26T02:56:51.455Z,95223.91
2022-08-26T02:59:39.433Z,95223.13
2022-08-26T03:02:25.116Z,95222.34
2022-08-26T03:05:12.469Z,95228.66
2022-08-26T03:07:58.365Z,95216.81
2022-08-26T03:10:48.131Z,95220.00
2022-08-26T03:13:36.342Z,95224.72
2022-08-26T03:16:22.597Z,95230.63
2022-08-26T03:19:09.850Z,95222.38
2022-08-26T03:22:08.120Z,95220.78
2022-08-26T03:24:54.274Z,95215.28
2022-08-26T03:27:40.507Z,95222.75
2022-08-26T03:30:49.086Z,95224.72
2022-08-26T03:33:35.066Z,95224.31
2022-08-26T03:36:22.250Z,95227.06
2022-08-26T03:39:08.512Z,95228.63
2022-08-26T03:41:55.783Z,95219.97
2022-08-26T03:44:46.026Z,95223.13
2022-08-26T03:47:39.108Z,95217.19
2022-08-26T03:50:25.893Z,95238.84
2022-08-26T03:53:13.423Z,95225.84
2022-08-26T03:55:59.701Z,95236.44
2022-08-26T03:58:45.950Z,95225.44
2022-08-26T04:01:32.086Z,95228.56
2022-08-26T04:04:18.718Z,95230.91
2022-08-26T04:07:09.310Z,95229.34
2022-08-26T04:09:58.557Z,95224.59
2022-08-26T04:12:45.017Z,95222.22
2022-08-26T04:15:31.131Z,95220.25
2022-08-26T04:18:17.270Z,95223.00
2022-08-26T04:21:07.763Z,95231.31
2022-08-26T04:23:54.458Z,95234.84
2022-08-26T04:26:42.852Z,95230.50
2022-08-26T04:29:29.802Z,95228.56
2022-08-26T04:32:16.434Z,95231.31
2022-08-26T04:35:02.929Z,95223.03
2022-08-26T04:37:50.903Z,95232.50
2022-08-26T04:40:36.997Z,95234.88
2022-08-26T04:43:30.586Z,95236.88
2022-08-26T04:46:18.529Z,95238.03
2022-08-26T04:49:08.566Z,95227.81
2022-08-26T04:51:55.052Z,95240.41
2022-08-26T04:54:42.192Z,95234.13
2022-08-26T04:57:28.066Z,95241.19
2022-08-26T05:00:18.813Z,95244.72
2022-08-26T05:03:05.484Z,95242.78
2022-08-26T05:06:07.214Z,95238.06
2022-08-26T05:08:55.543Z,95223.50
2022-08-26T05:11:45.737Z,95230.97
2022-08-26T05:14:46.421Z,95235.31
2022-08-26T05:17:33.499Z,95238.06
2022-08-26T05:20:25.751Z,95232.56
2022-08-26T05:23:32.166Z,95234.94
2022-08-26T05:26:30.836Z,95239.66
2022-08-26T05:29:54.457Z,95235.72
2022-08-26T05:32:40.336Z,95233.38
2022-08-26T05:35:34.165Z,95225.91
2022-08-26T05:38:21.793Z,95237.31
2022-08-26T05:45:28.535Z,95240.47
2022-08-26T05:48:16.966Z,95231.81
2022-08-26T05:51:15.766Z,95229.44
2022-08-26T05:54:02.769Z,95229.41
2022-08-26T05:56:51.377Z,95227.50
2022-08-26T05:59:37.284Z,95222.38
2022-08-26T06:02:25.021Z,95242.84
2022-08-26T06:05:11.714Z,95231.81
2022-08-26T06:08:14.196Z,95232.59
2022-08-26T06:11:02.764Z,95234.94
2022-08-26T06:13:48.984Z,95239.69
2022-08-26T06:16:40.957Z,95229.84
2022-08-26T06:19:32.721Z,95236.94
2022-08-26T06:22:55.543Z,95241.25
2022-08-26T06:25:42.092Z,95238.13
2022-08-26T06:28:29.612Z,95241.25
2022-08-26T06:31:16.109Z,95247.16
2022-08-26T06:34:06.165Z,95216.03
2022-08-26T06:36:55.855Z,95242.81
2022-08-26T06:39:48.972Z,95238.88
2022-08-26T06:42:38.051Z,95234.91
2022-08-26T06:45:25.223Z,95243.16
2022-08-26T06:48:13.406Z,95245.16
2022-08-26T06:51:10.745Z,95241.59
2022-08-26T06:54:00.416Z,95244.34
2022-08-26T08:09:37.674Z,95208.84
2022-08-26T08:12:26.466Z,95192.31
2022-08-26T08:15:15.483Z,95189.13
2022-08-26T08:18:02.085Z,95188.28
2022-08-26T08:20:59.201Z,95176.44
2022-08-26T08:24:00.682Z,95187.44
2022-08-26T08:26:47.035Z,95185.03
2022-08-26T08:29:33.108Z,95186.56
2022-08-26T08:32:22.335Z,95184.56
2022-08-26T08:35:10.933Z,95185.34
2022-08-26T08:37:57.527Z,95184.50
2022-08-26T08:40:45.630Z,95187.28
2022-08-26T08:43:42.452Z,95186.44
2022-08-26T08:46:30.310Z,95168.28
2022-08-26T08:49:17.630Z,95175.38
2022-08-26T08:52:14.406Z,95174.53
2022-08-26T08:55:01.543Z,95172.53
2022-08-26T08:58:08.077Z,95174.09
2022-08-26T09:01:00.837Z,95172.06
2022-08-26T09:04:44.518Z,95166.47
2022-08-26T09:07:41.475Z,95163.28
2022-08-26T09:10:33.794Z,95158.09
2022-08-26T09:13:38.504Z,95158.44
2022-08-26T09:16:46.654Z,95155.22
2022-08-26T09:19:50.021Z,95150.06
2022-08-26T09:22:49.719Z,95145.69
2022-08-26T09:25:52.072Z,95150.34
2022-08-26T09:28:56.874Z,95151.84
2022-08-26T09:31:47.765Z,95154.13
2022-08-26T09:34:34.293Z,95154.06
2022-08-26T09:37:35.280Z,95154.75
2022-08-26T09:40:34.923Z,95161.84
2022-08-26T09:43:22.387Z,95156.25
2022-08-26T09:46:36.161Z,95155.44
2022-08-26T09:49:36.128Z,95156.19
2022-08-26T09:52:24.734Z,95148.97
2022-08-26T09:55:15.622Z,95137.84
2022-08-26T09:58:07.780Z,95142.56
2022-08-26T10:00:57.876Z,95143.19
2022-08-26T10:03:47.095Z,95132.50
2022-08-26T10:07:03.896Z,95139.88
2022-08-26T10:09:51.680Z,95138.19
2022-08-26T10:12:43.442Z,95131.00
2022-08-26T10:15:33.219Z,95139.63
2022-08-26T10:18:27.206Z,95135.59
2022-08-26T10:21:43.098Z,95130.81
2022-08-26T10:24:41.239Z,95131.53
2022-08-26T10:28:01.688Z,95132.66
2022-08-26T10:30:53.033Z,95121.91
2022-08-26T10:33:39.344Z,95125.44
2022-08-26T10:37:05.465Z,95124.97
2022-08-26T10:40:07.700Z,95117.72
2022-08-26T10:43:16.876Z,95112.94
2022-08-26T10:46:14.551Z,95111.97
2022-08-26T10:49:17.963Z,95113.81
2022-08-26T10:52:17.958Z,95107.72
2022-08-26T10:55:25.353Z,95112.38
2022-08-26T10:58:26.236Z,95108.81
2022-08-26T11:01:40.662Z,95109.63
2022-08-26T11:04:48.335Z,95098.56
2022-08-26T11:07:43.360Z,95100.66
2022-08-26T11:10:38.644Z,95091.97
2022-08-26T11:14:04.488Z,95102.31
2022-08-26T11:16:52.938Z,95106.28
2022-08-26T11:19:59.575Z,95107.13
2022-08-26T11:22:48.037Z,95097.69
2022-08-26T11:25:34.426Z,95106.06
2022-08-26T11:28:46.029Z,95094.53
2022-08-26T11:31:39.083Z,95097.59
2022-08-26T11:34:56.268Z,95089.97
2022-08-26T11:37:48.441Z,95088.94
2022-08-26T11:40:38.714Z,95083.50
2022-08-26T11:43:26.694Z,95078.38
2022-08-26T11:46:28.348Z,95076.31
2022-08-26T11:49:17.541Z,95071.00
2022-08-26T11:52:22.276Z,95071.09
2022-08-26T11:55:12.103Z,95058.25
2022-08-26T11:58:01.012Z,95070.75
2022-08-26T12:00:51.086Z,95066.78
2022-08-26T12:03:41.917Z,95062.75
2022-08-26T12:06:38.978Z,95059.50
2022-08-26T12:09:35.125Z,95056.25
2022-08-26T12:12:34.761Z,95046.94
2022-08-26T12:15:22.812Z,95055.97
2022-08-26T12:18:29.407Z,95047.19
2022-08-26T12:21:24.299Z,95049.84
2022-08-26T12:24:18.045Z,95043.22
2022-08-26T12:27:17.074Z,95050.78
2022-08-26T12:30:26.949Z,95049.25
2022-08-26T12:33:22.269Z,95048.91
2022-08-26T12:36:09.462Z,95043.88
2022-08-26T12:38:58.272Z,95041.84
2022-08-26T12:41:53.034Z,95042.84
2022-08-26T12:44:53.955Z,95038.91
2022-08-26T12:47:44.196Z,95038.94
2022-08-26T12:50:33.706Z,95030.19
2022-08-26T12:53:30.981Z,95037.25
2022-08-26T12:56:40.499Z,95030.34
2022-08-26T12:59:26.777Z,95019.88
2022-08-26T13:02:35.709Z,95020.38
2022-08-26T13:05:33.263Z,95025.47
2022-08-26T13:08:27.525Z,95013.31
2022-08-26T13:11:35.388Z,95017.03
2022-08-26T13:14:24.410Z,95024.28
2022-08-26T13:17:10.469Z,95016.97
2022-08-26T13:20:01.273Z,95017.44
2022-08-26T13:22:58.691Z,95008.41
2022-08-26T13:25:45.387Z,95003.22
2022-08-26T13:28:31.612Z,95006.19
2022-08-26T13:31:17.616Z,94994.19
2022-08-26T13:34:05.136Z,95004.56
2022-08-26T13:36:54.182Z,95005.88
2022-08-26T13:39:41.915Z,95001.84
2022-08-26T13:42:28.335Z,95004.78
2022-08-26T13:45:14.490Z,95004.91
2022-08-26T13:48:00.666Z,95002.94
2022-08-26T13:50:47.961Z,95000.97
2022-08-26T13:53:34.607Z,94996.47
2022-08-26T15:19:52.468Z,94968.97
2022-08-26T15:22:39.904Z,94959.59
2022-08-26T15:25:25.918Z,94960.84
2022-08-26T15:28:14.962Z,94965.50
2022-08-26T15:31:07.326Z,94960.47
2022-08-26T15:33:59.574Z,94945.25
2022-08-26T15:36:49.868Z,94960.75
2022-08-26T15:39:42.465Z,94920.75
2022-08-26T15:42:42.782Z,94915.22
2022-08-26T15:45:34.503Z,94940.75
2022-08-26T15:48:21.542Z,94939.09
2022-08-26T15:51:08.481Z,94942.75
2022-08-26T15:53:56.379Z,94950.44
2022-08-26T15:56:43.480Z,94947.34
2022-08-26T15:59:32.851Z,94935.53
2022-08-26T16:02:19.040Z,94944.41
2022-08-26T16:05:05.123Z,94929.97
2022-08-26T16:07:51.150Z,94944.66
2022-08-26T16:10:50.268Z,94934.06
2022-08-26T16:13:39.891Z,94944.56
2022-08-26T16:16:26.609Z,94950.06
2022-08-26T16:19:13.148Z,94943.16
2022-08-26T16:21:59.131Z,94950.22
2022-08-26T16:24:45.316Z,94950.44
2022-08-26T16:27:32.602Z,94956.19
2022-08-26T16:30:19.777Z,94963.97
2022-08-26T16:33:06.807Z,94964.81
2022-08-26T16:35:54.326Z,94969.34
2022-08-26T16:38:41.256Z,94964.69
2022-08-26T16:41:31.924Z,94964.84
2022-08-26T16:44:18.128Z,94964.66
2022-08-26T16:47:04.347Z,94967.75
2022-08-26T16:49:50.823Z,94974.59
2022-08-26T16:52:40.261Z,94967.91
2022-08-26T16:55:26.616Z,94969.00
2022-08-26T16:58:12.493Z,94963.84
2022-08-26T17:00:58.238Z,94957.81
2022-08-26T17:03:44.320Z,94962.94
2022-08-26T17:06:30.607Z,94964.44
2022-08-26T17:09:16.756Z,94962.75
2022-08-26T17:12:03.201Z,94968.63
2022-08-26T17:14:49.239Z,94969.25
2022-08-26T17:17:35.988Z,94972.00
2022-08-26T17:20:23.380Z,94973.41
2022-08-26T17:23:09.514Z,94971.69
2022-08-26T17:25:55.383Z,94973.59
2022-08-26T17:28:41.381Z,94977.38
2022-08-26T17:31:27.544Z,94972.94
2022-08-26T17:34:13.357Z,94982.56
2022-08-26T17:36:59.592Z,94983.91
2022-08-26T17:39:45.421Z,94995.53
2022-08-26T17:42:31.710Z,94998.84
2022-08-26T17:48:04.901Z,95005.47
2022-08-26T17:50:50.972Z,95007.66
2022-08-26T17:53:37.410Z,95016.13
2022-08-26T17:56:29.886Z,95022.28
2022-08-26T17:59:18.143Z,95034.69
2022-08-26T18:02:04.073Z,95030.50
2022-08-26T18:04:50.268Z,95040.88
2022-08-26T18:07:43.863Z,95028.00
2022-08-26T18:10:31.455Z,95034.47
2022-08-26T18:13:17.830Z,95034.19
2022-08-26T18:16:05.983Z,95038.69
2022-08-26T18:18:53.383Z,95051.50
2022-08-26T18:21:39.733Z,95060.31
2022-08-26T18:24:26.044Z,95052.16
2022-08-26T18:27:12.184Z,95061.31
2022-08-26T18:29:58.288Z,95055.91
2022-08-26T18:32:44.787Z,95064.34
2022-08-26T18:35:30.778Z,95070.00
2022-08-26T18:38:17.383Z,95072.91
2022-08-26T18:41:04.539Z,95081.69
2022-08-26T18:43:52.858Z,95084.19
2022-08-26T18:46:39.153Z,95094.53
2022-08-26T18:49:25.038Z,95090.25
2022-08-26T18:52:10.972Z,95090.38
2022-08-26T18:54:57.357Z,95093.16
2022-08-26T18:57:43.301Z,95089.28
2022-08-26T19:00:31.338Z,95100.91
2022-08-26T19:03:19.090Z,95106.88
2022-08-26T19:06:05.549Z,95103.38
2022-08-26T19:08:51.747Z,95100.66
2022-08-26T19:11:42.331Z,95100.66
2022-08-26T19:14:29.408Z,95103.16
2022-08-26T19:17:15.611Z,95104.06
2022-08-26T19:20:01.647Z,95112.00
2022-08-26T19:22:47.840Z,95108.09
2022-08-26T19:25:33.784Z,95102.63
2022-08-26T19:28:21.513Z,95104.63
2022-08-26T19:31:11.076Z,95112.16
2022-08-26T19:33:58.186Z,95107.47
2022-08-26T19:36:46.701Z,95112.28
2022-08-26T19:39:32.729Z,95113.13
2022-08-26T19:42:18.557Z,95115.13
2022-08-26T19:45:07.741Z,95112.84
2022-08-26T19:47:59.284Z,95099.81
2022-08-26T19:50:46.130Z,95116.06
2022-08-26T19:53:32.166Z,95113.78
2022-08-26T19:56:18.926Z,95109.44
2022-08-26T19:59:05.008Z,95112.25
2022-08-26T20:02:01.462Z,95107.56
2022-08-26T20:04:47.714Z,95121.41
2022-08-26T20:07:33.985Z,95113.53
2022-08-26T20:10:22.827Z,95117.13
2022-08-26T20:13:08.803Z,95121.16
2022-08-26T20:15:54.853Z,95116.84
2022-08-26T20:19:00.799Z,95122.38
2022-08-26T20:21:46.951Z,95129.56
2022-08-26T20:24:33.394Z,95132.75
2022-08-26T20:27:19.793Z,95134.34
2022-08-26T20:30:07.778Z,95133.59
2022-08-26T20:32:53.916Z,95140.00
2022-08-26T20:35:52.252Z,95135.34
2022-08-26T20:38:42.514Z,95140.88
2022-08-26T20:41:28.670Z,95133.00
2022-08-26T20:44:14.667Z,95140.91
2022-08-26T20:47:00.928Z,95144.06
2022-08-26T20:49:47.284Z,95139.00
2022-08-26T20:52:38.238Z,95139.41
2022-08-26T20:55:25.828Z,95137.03
2022-08-26T20:58:12.029Z,95137.84
2022-08-26T21:00:58.331Z,95135.50
2022-08-26T21:03:44.482Z,95143.81
2022-08-26T21:06:31.045Z,95142.66
2022-08-26T21:09:18.545Z,95142.66
2022-08-26T21:12:04.746Z,95133.63
2022-08-26T21:14:50.517Z,95141.94
2022-08-26T21:17:37.581Z,95139.56
2022-08-26T21:20:24.150Z,95146.69
2022-08-26T21:23:09.892Z,95140.41
2022-08-26T21:25:56.270Z,95144.78
2022-08-26T21:28:44.199Z,95144.44
2022-08-26T21:31:32.062Z,95147.59
2022-08-26T21:34:19.468Z,95140.53
2022-08-26T21:37:06.010Z,95144.50
2022-08-26T21:40:35.327Z,95139.78
2022-08-26T21:43:34.747Z,95140.19
2022-08-26T21:46:41.314Z,95136.69
2022-08-26T21:49:27.390Z,95133.16
2022-08-26T21:52:13.343Z,95131.19
2022-08-26T21:55:00.889Z,95139.88
2022-08-26T21:57:46.847Z,95144.66
2022-08-26T22:00:32.606Z,95138.31
2022-08-26T22:03:18.461Z,95143.06
2022-08-26T22:06:04.637Z,95143.91
2022-08-26T22:08:53.231Z,95145.09
2022-08-26T22:11:39.261Z,95147.84
2022-08-26T22:14:30.699Z,95153.38
2022-08-26T22:17:17.160Z,95134.47
2022-08-26T22:20:03.811Z,95145.50
2022-08-26T22:22:49.819Z,95147.88
2022-08-26T22:25:38.891Z,95142.38
2022-08-26T22:28:25.309Z,95153.44
2022-08-26T22:31:12.659Z,95146.38
2022-08-26T22:33:59.367Z,95136.91
2022-08-26T22:36:47.536Z,95148.75
2022-08-26T22:39:34.218Z,95133.00
2022-08-26T22:42:20.104Z,95137.69
2022-08-26T22:45:07.113Z,95132.22
2022-08-26T22:47:53.234Z,95135.38
2022-08-26T22:50:38.956Z,95131.44
2022-08-26T22:53:24.737Z,95133.00
2022-08-26T22:56:12.232Z,95138.53
2022-08-26T22:58:58.025Z,95144.06
2022-08-26T23:01:44.809Z,95143.28
2022-08-26T23:04:30.874Z,95147.22
2022-08-26T23:07:19.000Z,95140.16
2022-08-26T23:10:07.554Z,95142.16
2022-08-26T23:12:53.542Z,95151.22
2022-08-26T23:15:39.918Z,95151.22
2022-08-26T23:18:25.772Z,95148.09
2022-08-26T23:21:11.973Z,95143.38
2022-08-26T23:23:57.830Z,95148.13
2022-08-26T23:26:44.439Z,95146.13
2022-08-26T23:29:30.581Z,95143.78
2022-08-26T23:32:16.606Z,95149.72
2022-08-26T23:35:02.419Z,95146.56
2022-08-26T23:37:57.873Z,95149.31
2022-08-26T23:40:45.271Z,95148.53
2022-08-26T23:43:31.195Z,95147.38
2022-08-26T23:46:17.657Z,95148.94
2022-08-26T23:49:06.092Z,95146.56
2022-08-26T23:52:16.682Z,95146.56
2022-08-26T23:55:02.700Z,95142.63
2022-08-26T23:57:48.386Z,95145.81
